Time;durP1;ratioP1;P1;durP2;ratioP2;P2;SDS_P1;SDS_P2;PMS_P1;PMS_P2;Temp;Humidity;BMP_temperature;BMP_pressure;BME280_temperature;BME280_humidity;BME280_pressure;Samples;Min_cycle;Max_cycle;Signal;HPM_P1;HPM_P2
2023/01/18 00:01:51;;;;;;;30.13;14.13;;;;;;;7.01;91.64;99099.30;124650;1102;104378;-81
2023/01/18 00:04:23;;;;;;;30.40;14.43;;;;;;;7.00;92.14;99099.25;124721;1102;104224;-79
2023/01/18 00:06:54;;;;;;;30.07;13.97;;;;;;;6.99;91.90;99092.26;124787;1102;101953;-79
2023/01/18 00:09:27;;;;;;;27.07;13.07;;;;;;;7.00;91.94;99092.30;124668;1100;104043;-80
2023/01/18 00:11:59;;;;;;;30.23;14.33;;;;;;;6.99;91.85;99085.31;124806;1102;101861;-79
2023/01/18 00:14:30;;;;;;;26.93;14.07;;;;;;;7.00;91.96;99086.22;124627;1102;102044;-80
2023/01/18 00:17:01;;;;;;;29.23;13.90;;;;;;;7.00;92.05;99096.64;124802;1102;102854;-80
2023/01/18 00:19:33;;;;;;;29.40;14.17;;;;;;;7.01;92.45;99106.22;124853;1102;104842;-78
2023/01/18 00:22:05;;;;;;;27.63;13.73;;;;;;;7.01;92.16;99114.95;124702;1102;107161;-80
2023/01/18 00:24:36;;;;;;;31.03;14.17;;;;;;;7.01;92.84;99114.95;125009;1102;104190;-82
2023/01/18 00:27:10;;;;;;;33.90;14.90;;;;;;;7.02;93.28;99126.25;124805;1102;104188;-79
2023/01/18 00:29:40;;;;;;;;;;;;;;;7.01;93.49;99129.69;124822;1102;102042;-79
2023/01/18 00:32:13;;;;;;;32.87;14.20;;;;;;;7.01;93.07;99127.08;124768;1102;102096;-78
2023/01/18 00:34:45;;;;;;;32.73;15.30;;;;;;;6.99;93.95;99121.83;124850;1102;102319;-78
2023/01/18 00:37:17;;;;;;;31.67;14.43;;;;;;;6.99;93.36;99113.12;124757;1102;104179;-79
2023/01/18 00:39:48;;;;;;;30.00;14.30;;;;;;;7.01;93.25;99119.25;124835;1102;104227;-79
2023/01/18 00:45:23;;;;;;;29.97;14.07;;;;;;;7.00;93.42;99122.73;124682;1105;104277;-79
2023/01/18 00:47:54;;;;;;;30.47;15.60;;;;;;;6.99;93.76;99137.47;124535;1105;102207;-80
2023/01/18 00:50:26;;;;;;;31.07;15.47;;;;;;;7.00;93.23;99139.25;124668;1102;104175;-79
2023/01/18 00:52:58;;;;;;;29.80;14.80;;;;;;;7.00;93.40;99139.25;124723;1102;104184;-80
2023/01/18 00:55:29;;;;;;;31.10;15.73;;;;;;;7.02;93.55;99134.08;124786;1102;102026;-80
2023/01/18 00:58:01;;;;;;;33.03;16.07;;;;;;;7.06;93.54;99133.33;124692;1101;104254;-80
2023/01/18 01:00:32;;;;;;;31.40;15.17;;;;;;;7.11;93.74;99136.07;124852;1102;101833;-80
2023/01/18 01:03:04;;;;;;;28.70;14.97;;;;;;;7.15;93.32;99138.80;124820;1102;101836;-80
2023/01/18 01:08:26;;;;;;;32.00;15.70;;;;;;;7.24;93.40;99127.72;124885;1102;104261;-80
2023/01/18 01:11:07;;;;;;;31.30;15.03;;;;;;;7.29;93.98;99120.92;124764;1100;102025;-80
2023/01/18 01:27:44;;;;;;;29.07;14.57;;;;;;;7.49;94.45;99077.04;124727;1102;104644;-80
2023/01/18 01:30:15;;;;;;;28.73;15.17;;;;;;;7.51;94.03;99067.55;124860;1102;104169;-79
2023/01/18 01:32:47;;;;;;;30.50;13.90;;;;;;;7.53;94.30;99063.23;124777;1102;102866;-78
2023/01/18 01:35:18;;;;;;;27.20;13.83;;;;;;;7.56;94.96;99068.53;124774;1102;104287;-80
2023/01/18 01:37:49;;;;;;;30.93;14.33;;;;;;;7.58;94.63;99062.47;124913;1102;104173;-80
2023/01/18 01:40:21;;;;;;;33.80;14.97;;;;;;;7.59;94.50;99056.39;124951;1101;104249;-79
2023/01/18 01:42:52;;;;;;;30.00;14.50;;;;;;;7.61;94.56;99055.59;124937;1102;104185;-80
2023/01/18 01:45:28;;;;;;;29.83;14.27;;;;;;;7.63;94.70;99048.67;124680;1102;102376;-81
2023/01/18 01:47:59;;;;;;;29.60;14.57;;;;;;;7.65;94.67;99033.04;124735;1102;104204;-80
2023/01/18 01:50:38;;;;;;;29.53;13.97;;;;;;;7.68;95.00;99022.67;124763;1102;101954;-80
2023/01/18 01:53:16;;;;;;;30.83;14.60;;;;;;;7.70;95.16;99015.78;124861;1102;104233;-80
2023/01/18 01:56:06;;;;;;;31.60;15.17;;;;;;;7.73;95.00;99010.63;125210;1102;102043;-79
2023/01/18 01:58:37;;;;;;;27.67;13.60;;;;;;;7.72;95.34;98996.67;124838;1102;104188;-80
2023/01/18 02:01:09;;;;;;;31.93;14.43;;;;;;;7.73;95.64;98981.91;124967;1102;101839;-80
2023/01/18 02:03:43;;;;;;;29.30;14.80;;;;;;;7.74;95.69;98970.59;124962;1102;104226;-80
2023/01/18 02:06:30;;;;;;;28.83;14.60;;;;;;;7.75;95.57;98974.98;124996;1102;104067;-81
2023/01/18 02:09:04;;;;;;;35.90;16.70;;;;;;;7.75;95.55;98972.37;124991;1102;102147;-79
2023/01/18 02:11:37;;;;;;;26.57;12.67;;;;;;;7.74;95.96;98957.54;124897;1102;104211;-82
2023/01/18 02:14:16;;;;;;;31.77;13.20;;;;;;;7.74;96.02;98968.89;124988;1102;104208;-82
2023/01/18 02:17:14;;;;;;;29.10;13.90;;;;;;;7.74;96.42;98973.20;125089;1102;101943;-82
2023/01/18 02:20:18;;;;;;;29.27;13.17;;;;;;;7.73;97.85;98976.69;125065;1102;102631;-80
2023/01/18 02:23:24;;;;;;;31.20;15.23;;;;;;;7.72;97.23;98977.52;124808;1102;104178;-80
2023/01/18 02:26:20;;;;;;;30.93;14.70;;;;;;;7.73;96.59;98974.08;124850;1102;102205;-80
2023/01/18 02:29:01;;;;;;;34.50;15.37;;;;;;;7.74;96.39;98968.89;124945;1102;104290;-80
2023/01/18 02:31:40;;;;;;;34.70;15.77;;;;;;;7.75;96.63;98959.31;124891;1102;102123;-79
2023/01/18 02:34:21;;;;;;;32.20;14.90;;;;;;;7.78;97.11;98951.55;125213;1102;102064;-81
2023/01/18 02:37:02;;;;;;;29.53;15.43;;;;;;;7.80;97.03;98956.80;124726;1105;102043;-80
2023/01/18 02:40:13;;;;;;;30.67;14.80;;;;;;;7.80;97.62;98952.45;124694;1102;104176;-80
2023/01/18 02:48:38;;;;;;;30.37;13.37;;;;;;;7.83;97.67;98970.80;124900;1102;101823;-82
2023/01/18 02:51:10;;;;;;;30.87;13.93;;;;;;;7.85;97.69;98978.67;124979;1101;104329;-79
2023/01/18 02:53:44;;;;;;;29.27;14.60;;;;;;;7.86;97.92;98973.48;124745;1102;104323;-80
2023/01/18 02:56:21;;;;;;;31.20;13.65;;;;;;;7.89;98.07;98984.00;124742;1102;102025;-81
2023/01/18 02:58:56;;;;;;;26.97;14.60;;;;;;;7.92;97.96;98985.80;124776;1102;102036;-80
2023/01/18 03:01:32;;;;;;;34.10;15.17;;;;;;;7.97;98.13;98975.45;124737;1101;101967;-80
2023/01/18 03:04:09;;;;;;;31.53;14.80;;;;;;;8.00;97.24;98979.01;124798;1102;101793;-80
2023/01/18 03:06:44;;;;;;;30.23;14.40;;;;;;;8.05;98.07;98968.66;124740;1102;102125;-80
2023/01/18 03:09:17;;;;;;;30.27;14.50;;;;;;;8.07;97.89;98974.79;124755;1102;102393;-80
2023/01/18 03:11:56;;;;;;;30.13;13.60;;;;;;;8.10;97.87;98964.41;124924;1102;102070;-79
2023/01/18 03:14:42;;;;;;;33.53;14.97;;;;;;;8.12;98.10;98960.11;124766;1102;104415;-80
2023/01/18 03:17:22;;;;;;;28.80;15.00;;;;;;;8.15;97.92;98964.50;124777;1102;103871;-80
2023/01/18 03:20:05;;;;;;;30.77;14.50;;;;;;;8.19;98.30;98971.56;124802;1101;104381;-80
2023/01/18 03:25:33;;;;;;;36.60;16.67;;;;;;;8.22;97.89;98959.43;124632;1102;101957;-81
2023/01/18 03:33:53;;;;;;;34.23;16.87;;;;;;;8.31;98.12;98952.66;124805;1102;104230;-80
2023/01/18 03:36:28;;;;;;;32.73;16.57;;;;;;;8.33;99.04;98941.36;124791;1102;104287;-80
2023/01/18 03:39:04;;;;;;;34.00;15.40;;;;;;;8.37;98.48;98944.94;124752;1102;104281;-80
2023/01/18 03:41:41;;;;;;;35.20;15.00;;;;;;;8.41;98.98;98946.73;124743;1102;104380;-82
2023/01/18 03:44:18;;;;;;;32.53;14.60;;;;;;;8.45;98.58;98930.30;124752;1102;105528;-81
2023/01/18 03:46:50;;;;;;;34.57;14.37;;;;;;;8.49;98.76;98929.48;124830;1102;104242;-82
2023/01/18 03:49:21;;;;;;;27.77;13.30;;;;;;;8.52;99.21;98932.16;124841;1102;104262;-81
2023/01/18 03:52:07;;;;;;;29.43;13.27;;;;;;;8.57;99.42;98937.48;124844;1102;101926;-80
2023/01/18 03:54:45;;;;;;;35.20;14.53;;;;;;;8.60;99.60;98927.08;124878;1102;104255;-80
2023/01/18 03:57:23;;;;;;;33.33;12.60;;;;;;;8.64;99.87;98927.16;124734;1102;102428;-83
2023/01/18 03:59:55;;;;;;;29.40;12.57;;;;;;;8.67;100.00;98912.41;124670;1102;104205;-82
2023/01/18 04:02:28;;;;;;;29.47;13.13;;;;;;;8.69;99.39;98916.78;124929;1102;103177;-80
2023/01/18 04:05:02;;;;;;;34.60;14.13;;;;;;;8.72;99.40;98919.45;124852;1102;102072;-81
2023/01/18 04:07:34;;;;;;;30.27;13.53;;;;;;;8.76;99.45;98917.80;124825;1101;104549;-81
2023/01/18 04:10:06;;;;;;;33.33;13.27;;;;;;;8.79;99.29;98918.72;124774;1102;104194;-80
2023/01/18 04:12:37;;;;;;;29.27;13.37;;;;;;;8.84;99.39;98926.65;124752;1102;104227;-80
2023/01/18 04:15:11;;;;;;;30.87;12.33;;;;;;;8.88;99.17;98930.19;124937;1102;102163;-80
2023/01/18 04:17:42;;;;;;;31.37;12.85;;;;;;;8.91;99.93;98938.09;125148;1102;104216;-80
2023/01/18 04:20:14;;;;;;;30.70;13.10;;;;;;;8.95;99.92;98934.68;124933;1102;104198;-79
2023/01/18 04:22:50;;;;;;;29.20;12.17;;;;;;;8.97;100.00;98936.45;125066;1102;104262;-83
2023/01/18 04:25:22;;;;;;;28.93;12.43;;;;;;;9.00;100.00;98933.02;124924;1102;104182;-79
2023/01/18 04:27:53;;;;;;;29.27;12.27;;;;;;;9.04;100.00;98939.17;124858;1101;102019;-80
2023/01/18 04:30:26;;;;;;;29.10;12.30;;;;;;;9.06;100.00;98930.50;125127;1102;102450;-83
2023/01/18 04:32:57;;;;;;;33.93;12.90;;;;;;;9.08;100.00;98918.31;124791;1102;102323;-80
2023/01/18 04:35:28;;;;;;;34.03;13.67;;;;;;;9.10;100.00;98914.01;124894;1102;104191;-81
2023/01/18 04:37:59;;;;;;;32.27;12.73;;;;;;;9.12;100.00;98909.67;124837;1102;102106;-80
2023/01/18 04:40:31;;;;;;;27.50;12.33;;;;;;;9.13;100.00;98913.16;124768;1102;104313;-81
2023/01/18 04:43:03;;;;;;;32.40;13.87;;;;;;;9.14;100.00;98920.16;125013;1102;104271;-81
2023/01/18 04:45:34;;;;;;;31.70;11.73;;;;;;;9.14;100.00;98926.27;125143;1102;104264;-80
2023/01/18 04:48:06;;;;;;;30.77;12.50;;;;;;;9.16;100.00;98923.67;124790;1102;104197;-83
2023/01/18 04:50:44;;;;;;;30.37;12.10;;;;;;;9.17;100.00;98909.74;124775;1102;104191;-81
2023/01/18 04:53:15;;;;;;;30.70;12.17;;;;;;;9.19;100.00;98913.25;124805;1102;101897;-85
2023/01/18 04:55:46;;;;;;;31.47;12.13;;;;;;;9.20;100.00;98909.80;124887;1102;104176;-81
2023/01/18 04:58:18;;;;;;;28.47;12.73;;;;;;;9.23;100.00;98919.44;124857;1102;101929;-80
2023/01/18 05:00:49;;;;;;;31.10;12.30;;;;;;;9.24;100.00;98922.08;124857;1102;104175;-80
2023/01/18 05:03:20;;;;;;;32.87;12.77;;;;;;;9.26;100.00;98938.68;125049;1102;102295;-80
2023/01/18 05:05:53;;;;;;;31.03;12.47;;;;;;;9.29;100.00;98941.34;124818;1102;102397;-81
2023/01/18 05:08:25;;;;;;;29.80;12.17;;;;;;;9.29;100.00;98941.34;124823;1101;102092;-81
2023/01/18 05:11:03;;;;;;;29.67;11.20;;;;;;;9.31;100.00;98946.61;124814;1101;104319;-80
2023/01/18 05:13:34;;;;;;;27.43;12.30;;;;;;;9.34;100.00;98938.80;124930;1102;102227;-79
2023/01/18 05:16:07;;;;;;;31.70;11.87;;;;;;;9.36;100.00;98934.46;124918;1102;104275;-83
2023/01/18 05:18:41;;;;;;;28.37;12.33;;;;;;;9.40;100.00;98935.41;124899;1102;104268;-80
2023/01/18 05:21:12;;;;;;;33.97;12.13;;;;;;;9.42;100.00;98942.41;124962;1102;104201;-81
2023/01/18 05:23:44;;;;;;;31.67;11.40;;;;;;;9.44;100.00;98945.05;124659;1102;102206;-80
2023/01/18 05:26:18;;;;;;;33.47;11.73;;;;;;;9.45;100.00;98941.59;124832;1102;104275;-83
2023/01/18 05:28:48;;;;;;;;;;;;;;;9.48;100.00;98941.64;125015;1102;102495;-81
2023/01/18 05:31:19;;;;;;;34.60;11.97;;;;;;;9.48;100.00;98952.98;125047;1102;104176;-80
2023/01/18 05:33:52;;;;;;;30.77;11.50;;;;;;;9.51;100.00;98965.25;125079;1102;104367;-83
2023/01/18 05:36:23;;;;;;;29.27;10.83;;;;;;;9.51;100.00;98963.50;124928;1102;102189;-79
2023/01/18 05:38:54;;;;;;;31.00;11.13;;;;;;;9.52;100.00;98960.03;125036;1102;102210;-76
2023/01/18 05:41:26;;;;;;;30.67;11.77;;;;;;;9.54;100.00;98953.07;125100;1102;104217;-78
2023/01/18 05:43:57;;;;;;;29.67;10.90;;;;;;;9.57;100.00;98953.97;125061;1102;102006;-78
2023/01/18 05:49:17;;;;;;;29.27;10.47;;;;;;;9.54;100.00;98952.20;125762;1093;102221;-76
2023/01/18 05:51:48;;;;;;;33.80;10.70;;;;;;;9.54;100.00;98941.73;125383;1102;102049;-79
2023/01/18 05:54:20;;;;;;;29.97;10.67;;;;;;;9.56;100.00;98946.98;125208;1102;102074;-80
2023/01/18 05:56:51;;;;;;;28.30;11.10;;;;;;;9.58;100.00;98948.75;125100;1102;102057;-79
2023/01/18 05:59:22;;;;;;;27.97;10.63;;;;;;;9.62;100.00;98952.31;125420;1102;102069;-78
2023/01/18 06:01:53;;;;;;;28.53;10.57;;;;;;;9.64;100.00;98945.35;125506;1102;102006;-77
2023/01/18 06:04:25;;;;;;;27.47;10.90;;;;;;;9.65;100.00;98947.99;125538;1100;103869;-77
2023/01/18 06:06:56;;;;;;;29.73;10.20;;;;;;;9.67;100.00;98954.13;126001;1102;102212;-77
2023/01/18 06:09:30;;;;;;;26.30;10.43;;;;;;;9.67;100.00;98941.03;125429;1102;102713;-76
2023/01/18 06:12:02;;;;;;;26.57;9.95;;;;;;;9.68;100.00;98939.31;125426;1102;104326;-80
2023/01/18 06:14:33;;;;;;;25.57;9.87;;;;;;;9.73;100.00;98944.61;125009;1102;102093;-77
2023/01/18 06:17:07;;;;;;;23.60;9.73;;;;;;;9.71;100.00;98953.33;125048;1102;104287;-77
2023/01/18 06:19:39;;;;;;;26.27;9.98;;;;;;;9.73;100.00;98955.09;125523;1102;102317;-79
2023/01/18 06:22:10;;;;;;;25.50;8.83;;;;;;;9.73;100.00;98958.58;124949;1102;102689;-75
2023/01/18 06:24:41;;;;;;;31.27;9.67;;;;;;;9.73;100.00;98949.86;125055;1102;103591;-80
2023/01/18 06:27:12;;;;;;;26.10;9.70;;;;;;;9.70;100.00;98946.31;124849;1102;102206;-79
2023/01/18 06:29:44;;;;;;;32.10;9.40;;;;;;;9.69;100.00;98941.05;124724;1100;103557;-79
2023/01/18 06:32:16;;;;;;;28.30;9.40;;;;;;;9.67;100.00;98943.65;124919;1102;102722;-75
2023/01/18 06:34:47;;;;;;;33.23;10.33;;;;;;;9.69;100.00;98946.29;124778;1102;103260;-77
2023/01/18 06:37:18;;;;;;;26.43;9.17;;;;;;;9.74;100.00;98942.02;125148;1102;104192;-77
2023/01/18 06:39:50;;;;;;;23.13;8.37;;;;;;;9.78;100.00;98937.69;124793;1102;102242;-77
2023/01/18 06:42:21;;;;;;;28.85;9.30;;;;;;;9.80;100.00;98943.82;124887;1102;102629;-75
2023/01/18 06:44:52;;;;;;;28.67;9.10;;;;;;;9.84;100.00;98949.13;124653;1102;102602;-75
2023/01/18 06:47:24;;;;;;;25.00;10.27;;;;;;;9.89;100.00;98955.33;124952;1102;103868;-76
2023/01/18 06:49:55;;;;;;;24.73;9.67;;;;;;;9.95;100.00;98964.13;125305;1102;102549;-77
2023/01/18 06:52:27;;;;;;;27.67;10.03;;;;;;;9.94;100.00;98955.39;125257;1102;104102;-75
2023/01/18 06:54:59;;;;;;;25.97;9.50;;;;;;;9.97;100.00;98960.67;125066;1102;104249;-77
2023/01/18 06:57:30;;;;;;;26.27;8.60;;;;;;;10.01;100.00;98951.98;124997;1102;104172;-78
2023/01/18 07:00:04;;;;;;;26.70;9.47;;;;;;;10.05;100.00;98943.30;125133;1102;102843;-77
2023/01/18 07:02:36;;;;;;;27.13;8.43;;;;;;;10.10;100.00;98945.98;125031;1101;104124;-77
2023/01/18 07:05:08;;;;;;;21.13;8.00;;;;;;;10.12;100.00;98946.00;124853;1102;103116;-76
2023/01/18 07:07:40;;;;;;;30.67;8.70;;;;;;;10.12;100.00;98938.14;124934;1102;104229;-76
2023/01/18 07:10:14;;;;;;;28.60;9.05;;;;;;;10.11;100.00;98944.23;125039;1101;104252;-76
2023/01/18 07:12:47;;;;;;;39.23;10.20;;;;;;;10.12;100.00;98948.63;125005;1101;103939;-77
2023/01/18 07:15:18;;;;;;;28.27;9.87;;;;;;;10.17;100.00;98939.06;125165;1102;102681;-78
2023/01/18 07:17:52;;;;;;;36.70;10.33;;;;;;;10.23;100.00;98936.52;125320;1101;104450;-77
2023/01/18 07:20:26;;;;;;;38.30;12.23;;;;;;;10.23;100.00;98940.02;124762;1103;103478;-77
2023/01/18 07:22:59;;;;;;;25.77;9.20;;;;;;;10.27;100.00;98943.58;125002;1101;103034;-77
2023/01/18 07:25:35;;;;;;;28.87;8.77;;;;;;;10.32;100.00;98939.26;124707;1102;103241;-78
2023/01/18 07:28:07;;;;;;;23.97;8.47;;;;;;;10.42;100.00;98948.13;124995;1102;103071;-77
2023/01/18 07:30:39;;;;;;;22.03;8.03;;;;;;;10.45;100.00;98949.92;124741;1102;108881;-78
2023/01/18 07:33:10;;;;;;;32.30;8.77;;;;;;;10.49;100.00;98949.11;125141;1102;102113;-76
2023/01/18 07:35:42;;;;;;;32.60;9.47;;;;;;;10.58;100.00;98962.29;125604;1102;101960;-77
2023/01/18 07:38:13;;;;;;;27.17;8.53;;;;;;;10.66;100.00;98955.41;124865;1102;102313;-77
2023/01/18 07:40:45;;;;;;;29.10;7.67;;;;;;;10.70;100.00;98953.69;125166;1102;118535;-81
2023/01/18 07:43:18;;;;;;;27.83;7.73;;;;;;;10.77;100.00;98952.89;125960;1093;104128;-75
2023/01/18 07:45:54;;;;;;;28.63;8.27;;;;;;;10.81;100.00;98951.17;124889;1102;103068;-77
2023/01/18 07:48:26;;;;;;;35.27;9.50;;;;;;;10.88;100.00;98955.63;124696;1102;104280;-75
2023/01/18 07:50:59;;;;;;;27.30;8.17;;;;;;;10.97;100.00;98950.47;124868;1102;102872;-76
2023/01/18 07:53:35;;;;;;;19.90;7.40;;;;;;;11.08;100.00;98948.81;124931;1102;102776;-77
2023/01/18 07:56:09;;;;;;;26.77;8.00;;;;;;;11.16;100.00;98943.63;125046;1102;102727;-78
2023/01/18 07:58:38;;;;;;;;;;;;;;;11.24;100.00;98951.56;125259;1101;103310;-80
2023/01/18 08:01:13;;;;;;;27.10;7.83;;;;;;;11.29;100.00;98945.47;124790;1102;111848;-78
2023/01/18 08:03:47;;;;;;;29.60;7.97;;;;;;;11.36;100.00;98954.30;125209;1102;103661;-78
2023/01/18 08:06:24;;;;;;;24.00;7.97;;;;;;;11.49;100.00;98960.51;125655;1100;101959;-78
2023/01/18 08:11:54;;;;;;;24.60;7.80;;;;;;;11.58;100.00;98964.96;125875;1093;101976;-76
2023/01/18 08:14:29;;;;;;;28.40;7.50;;;;;;;11.62;99.96;98958.84;125185;1102;104176;-79
2023/01/18 08:17:08;;;;;;;25.87;6.03;;;;;;;11.69;99.61;98952.77;125146;1102;104201;-80
2023/01/18 08:19:39;;;;;;;21.70;6.85;;;;;;;11.74;100.00;98958.92;124941;1102;102269;-81
2023/01/18 08:22:11;;;;;;;16.27;5.47;;;;;;;11.81;99.53;98965.08;124850;1102;102829;-78
2023/01/18 08:24:44;;;;;;;21.27;6.65;;;;;;;11.78;99.18;98963.34;124893;1102;104278;-77
2023/01/18 08:27:21;;;;;;;29.40;6.67;;;;;;;11.69;99.14;98964.15;125293;1102;102150;-78
2023/01/18 08:29:57;;;;;;;26.57;6.83;;;;;;;11.63;99.20;98958.85;125084;1102;103495;-77
2023/01/18 08:32:36;;;;;;;21.20;6.00;;;;;;;11.59;98.27;98953.56;125066;1102;102066;-76
2023/01/18 08:35:11;;;;;;;23.67;7.07;;;;;;;11.53;98.49;98945.64;125092;1102;102465;-76
2023/01/18 08:37:48;;;;;;;22.97;6.07;;;;;;;11.48;98.64;98942.98;125128;1102;102868;-77
2023/01/18 08:40:24;;;;;;;30.63;7.37;;;;;;;11.44;98.71;98947.34;125175;1102;102416;-77
2023/01/18 08:43:00;;;;;;;25.00;6.33;;;;;;;11.39;98.67;98954.32;125164;1102;102913;-79
2023/01/18 08:45:34;;;;;;;23.57;5.97;;;;;;;11.39;98.67;98950.79;125196;1102;104197;-77
2023/01/18 08:48:10;;;;;;;22.83;5.63;;;;;;;11.41;98.67;98938.57;124966;1102;103680;-77
2023/01/18 08:50:44;;;;;;;23.63;5.93;;;;;;;11.42;98.30;98935.05;124993;1102;102749;-76
2023/01/18 08:53:17;;;;;;;29.20;6.40;;;;;;;11.43;98.89;98937.69;124834;1102;102541;-78
2023/01/18 08:55:48;;;;;;;26.43;5.93;;;;;;;11.42;98.55;98933.33;125106;1102;103075;-77
2023/01/18 08:58:20;;;;;;;23.50;5.93;;;;;;;11.40;98.50;98942.05;125012;1102;104279;-77
2023/01/18 09:00:53;;;;;;;23.17;5.40;;;;;;;11.34;98.06;98932.38;125054;1102;104187;-78
2023/01/18 09:03:28;;;;;;;22.70;5.80;;;;;;;11.31;98.61;98945.48;125099;1101;104158;-76
2023/01/18 09:06:06;;;;;;;22.17;5.73;;;;;;;11.27;97.95;98930.59;125088;1100;104232;-77
2023/01/18 09:08:41;;;;;;;22.60;5.80;;;;;;;11.25;98.24;98938.45;125127;1102;102735;-78
2023/01/18 09:11:19;;;;;;;20.27;5.50;;;;;;;11.25;98.34;98937.55;125335;1102;102874;-77
2023/01/18 09:13:53;;;;;;;28.17;6.77;;;;;;;11.25;98.49;98935.83;125191;1102;104065;-78
2023/01/18 09:16:25;;;;;;;25.10;6.17;;;;;;;11.34;98.61;98945.50;124786;1102;102456;-76
2023/01/18 09:18:57;;;;;;;23.80;6.17;;;;;;;11.34;98.43;98937.62;124912;1102;102206;-80
2023/01/18 09:21:31;;;;;;;;;;;;;;;11.33;98.47;98938.52;125065;1102;104214;-79
2023/01/18 09:24:03;;;;;;;21.00;5.53;;;;;;;11.35;98.90;98931.52;124987;1101;103578;-78
2023/01/18 09:26:38;;;;;;;20.80;5.77;;;;;;;11.42;98.76;98928.08;125175;1102;103955;-76
2023/01/18 09:29:11;;;;;;;24.77;6.60;;;;;;;11.48;98.70;98930.75;124951;1102;102736;-76
2023/01/18 09:31:45;;;;;;;26.33;6.10;;;;;;;11.48;98.43;98933.37;125058;1102;102963;-77
2023/01/18 09:34:18;;;;;;;23.27;6.03;;;;;;;11.47;98.38;98936.86;124943;1102;104109;-77
2023/01/18 09:36:51;;;;;;;25.80;6.13;;;;;;;11.49;98.49;98940.36;124957;1102;103271;-77
2023/01/18 09:39:24;;;;;;;21.48;5.70;;;;;;;11.49;98.03;98940.36;124973;1102;103098;-76
2023/01/18 09:42:01;;;;;;;23.20;5.67;;;;;;;11.58;98.53;98936.94;124997;1102;104262;-77
2023/01/18 09:44:36;;;;;;;22.50;5.57;;;;;;;11.72;98.69;98933.49;124980;1102;102574;-76
2023/01/18 09:47:19;;;;;;;25.50;5.83;;;;;;;11.84;98.24;98937.09;125191;1102;104169;-76
2023/01/18 09:49:57;;;;;;;22.23;6.00;;;;;;;11.97;98.53;98926.69;125136;1102;102435;-76
2023/01/18 09:55:56;;;;;;;18.33;5.03;;;;;;;12.29;96.60;98918.90;124901;1102;104210;-77
2023/01/18 09:58:43;;;;;;;21.13;5.10;;;;;;;12.43;97.32;98923.34;124920;1102;103002;-76
2023/01/18 10:01:18;;;;;;;28.90;5.73;;;;;;;12.52;96.46;98924.23;125118;1102;103650;-76
2023/01/18 10:04:03;;;;;;;21.17;5.03;;;;;;;12.52;95.75;98915.47;125317;1102;103225;-77
2023/01/18 10:06:46;;;;;;;24.07;5.30;;;;;;;12.51;97.04;98911.08;125887;1102;107129;-77
2023/01/18 10:09:22;;;;;;;19.37;5.37;;;;;;;12.51;96.74;98911.08;126174;1101;102642;-77
2023/01/18 10:12:07;;;;;;;20.80;5.10;;;;;;;12.49;96.46;98903.18;126160;1102;101950;-76
2023/01/18 10:14:48;;;;;;;25.13;5.33;;;;;;;12.40;96.11;98906.69;126120;1102;101425;-77
2023/01/18 10:17:22;;;;;;;24.90;4.93;;;;;;;12.31;95.73;98898.77;126103;1101;102718;-78
2023/01/18 10:19:54;;;;;;;24.40;5.60;;;;;;;12.39;95.53;98906.67;126016;1102;102808;-78
2023/01/18 10:22:34;;;;;;;25.53;5.60;;;;;;;12.53;96.14;98902.33;126034;1102;102314;-79
2023/01/18 10:25:17;;;;;;;20.77;5.33;;;;;;;12.68;96.26;98896.19;126234;1101;103094;-79
2023/01/18 10:28:17;;;;;;;22.83;4.70;;;;;;;12.81;96.47;98891.84;126097;1102;102158;-84
2023/01/18 10:31:02;;;;;;;21.80;5.00;;;;;;;12.83;96.28;98892.71;126179;1102;103064;-80
2023/01/18 10:33:42;;;;;;;21.17;4.90;;;;;;;12.85;95.99;98898.84;126060;1102;102690;-77
2023/01/18 10:36:19;;;;;;;20.13;4.97;;;;;;;12.85;95.35;98888.31;125993;1101;102191;-77
2023/01/18 10:38:54;;;;;;;22.87;4.60;;;;;;;12.89;94.94;98897.11;126129;1101;101960;-79
2023/01/18 10:41:36;;;;;;;21.53;5.10;;;;;;;12.93;94.60;98897.12;125997;1102;102200;-77
2023/01/18 10:44:10;;;;;;;20.93;5.03;;;;;;;12.94;94.26;98883.05;126062;1101;102973;-77
2023/01/18 10:46:43;;;;;;;19.83;4.80;;;;;;;13.00;93.51;98899.75;125994;1101;102205;-78
2023/01/18 10:49:35;;;;;;;22.33;5.43;;;;;;;13.01;93.21;98894.48;125926;1101;102350;-77
2023/01/18 10:52:33;;;;;;;21.17;5.07;;;;;;;13.04;93.10;98885.69;126094;1101;102697;-78
2023/01/18 10:55:16;;;;;;;20.70;5.57;;;;;;;13.17;94.62;98887.45;126012;1102;102293;-78
2023/01/18 10:57:52;;;;;;;20.63;5.00;;;;;;;13.27;94.61;98876.02;126124;1102;118886;-78
2023/01/18 11:00:31;;;;;;;20.53;5.03;;;;;;;13.27;93.88;98876.02;125802;1102;102371;-77
2023/01/18 11:03:17;;;;;;;20.47;4.67;;;;;;;13.25;93.60;98885.69;125890;1102;101960;-78
2023/01/18 11:05:52;;;;;;;20.50;4.70;;;;;;;13.26;93.59;98879.55;126012;1101;102473;-76
2023/01/18 11:08:30;;;;;;;20.95;4.45;;;;;;;13.24;93.43;98883.92;125982;1102;102652;-76
2023/01/18 11:11:04;;;;;;;20.97;4.57;;;;;;;13.23;93.87;98883.92;126094;1101;102017;-76
2023/01/18 11:13:44;;;;;;;25.50;5.53;;;;;;;13.24;92.67;98875.16;126047;1101;102694;-78
2023/01/18 11:16:17;;;;;;;21.13;4.90;;;;;;;13.28;93.56;98872.52;125936;1101;102053;-77
2023/01/18 11:19:01;;;;;;;22.85;5.00;;;;;;;13.32;93.00;98876.01;126151;1101;102247;-75
2023/01/18 11:21:45;;;;;;;17.57;4.57;;;;;;;13.39;92.05;98866.39;126059;1101;102054;-76
2023/01/18 11:24:23;;;;;;;20.50;4.47;;;;;;;13.48;93.35;98869.02;125960;1101;104519;-76
2023/01/18 11:26:59;;;;;;;15.97;4.07;;;;;;;13.56;91.69;98866.36;126079;1101;102142;-81
2023/01/18 11:29:33;;;;;;;17.20;4.20;;;;;;;13.67;91.33;98861.92;125887;1102;102598;-80
2023/01/18 11:32:14;;;;;;;21.43;4.17;;;;;;;13.76;90.17;98858.36;125972;1101;102576;-77
2023/01/18 11:34:56;;;;;;;21.37;4.10;;;;;;;13.86;92.14;98864.50;126209;1102;101879;-77
2023/01/18 11:37:36;;;;;;;21.23;4.77;;;;;;;13.90;91.00;98872.40;126123;1101;102878;-80
2023/01/18 11:40:34;;;;;;;24.50;4.30;;;;;;;13.95;90.02;98883.80;125882;1102;102571;-79
2023/01/18 11:43:18;;;;;;;19.30;4.63;;;;;;;14.03;89.08;98874.08;126122;1101;102554;-82
2023/01/18 11:45:57;;;;;;;21.02;4.37;;;;;;;14.08;89.03;98881.11;126088;1101;102186;-82
2023/01/18 11:48:36;;;;;;;19.30;4.17;;;;;;;14.10;88.69;98871.42;125883;1102;102560;-77
2023/01/18 11:51:21;;;;;;;20.73;4.50;;;;;;;14.10;88.33;98874.05;125981;1102;104076;-77
2023/01/18 11:54:05;;;;;;;21.50;4.67;;;;;;;14.10;89.01;98874.95;126075;1101;102871;-77
2023/01/18 11:56:42;;;;;;;20.23;4.60;;;;;;;14.12;87.88;98853.84;125970;1101;101746;-78
2023/01/18 11:59:23;;;;;;;20.77;4.93;;;;;;;14.21;88.45;98869.62;126042;1101;110880;-80
2023/01/18 12:02:32;;;;;;;19.03;4.40;;;;;;;14.31;88.10;98866.03;125996;1102;102130;-78
2023/01/18 12:05:48;;;;;;;19.63;4.47;;;;;;;14.44;87.98;98868.61;125979;1101;103719;-78
2023/01/18 12:08:56;;;;;;;21.70;4.83;;;;;;;14.50;87.52;98868.56;125946;1102;101933;-77
2023/01/18 12:11:37;;;;;;;;;;;;;;;14.52;86.85;98872.06;125883;1102;102930;-78
2023/01/18 12:14:31;;;;;;;19.23;3.90;;;;;;;14.48;85.15;98871.22;126201;1100;101954;-79
2023/01/18 12:17:15;;;;;;;24.57;5.10;;;;;;;14.45;86.68;98878.28;125959;1102;102206;-77
2023/01/18 12:20:04;;;;;;;18.62;4.47;;;;;;;14.36;86.80;98880.07;126201;1101;118536;-79
2023/01/18 12:22:56;;;;;;;21.27;5.40;;;;;;;14.31;87.10;98883.64;125774;1102;102578;-79
2023/01/18 12:25:56;;;;;;;19.27;4.63;;;;;;;14.31;87.11;98886.28;125905;1102;102230;-77
2023/01/18 12:28:40;;;;;;;22.17;4.90;;;;;;;14.33;86.80;98887.14;126019;1102;102002;-77
2023/01/18 12:31:27;;;;;;;20.43;4.87;;;;;;;14.36;87.76;98887.98;125908;1102;102571;-75
2023/01/18 12:34:05;;;;;;;16.00;4.40;;;;;;;14.44;87.46;98885.30;125659;1102;102631;-77